Time;durP1;ratioP1;P1;durP2;ratioP2;P2;SDS_P1;SDS_P2;PMS_P1;PMS_P2;Temp;Humidity;BMP_temperature;BMP_pressure;BME280_temperature;BME280_humidity;BME280_pressure;Samples;Min_cycle;Max_cycle;Signal;HPM_P1;HPM_P2
2023/06/08 00:00:53;;;;;;;;;;;;;;;15.73;100.00;101816.94;4956741;28;19933;-71
2023/06/08 00:03:18;;;;;;;;;;;;;;;15.63;100.00;101818.69;4949579;28;19922;-71
2023/06/08 00:05:47;;;;;;;;;;;;;;;15.63;100.00;101818.69;4948631;28;19930;-71
2023/06/08 00:08:12;;;;;;;;;;;;;;;15.67;100.00;101812.88;4955907;28;19984;-71
2023/06/08 00:10:41;;;;;;;;;;;;;;;15.66;100.00;101816.56;4956871;28;20389;-71
2023/06/08 00:13:06;;;;;;;;;;;;;;;15.63;100.00;101815.97;4955412;28;20404;-71
2023/06/08 00:15:32;;;;;;;;;;;;;;;15.59;100.00;101813.53;4970321;28;19922;-71
2023/06/08 00:17:58;;;;;;;;;;;;;;;15.60;100.00;101815.25;4970896;28;19922;-71
2023/06/08 00:20:24;;;;;;;;;;;;;;;15.57;100.00;101817.38;4971414;28;20341;-71
2023/06/08 00:22:51;;;;;;;;;;;;;;;15.57;100.00;101815.50;4961477;28;19961;-71
2023/06/08 00:25:16;;;;;;;;;;;;;;;15.50;100.00;101810.72;4972100;28;20004;-71
2023/06/08 00:27:41;;;;;;;;;;;;;;;15.49;100.00;101812.59;4954929;28;19921;-71
2023/06/08 00:30:07;;;;;;;;;;;;;;;15.47;100.00;101811.00;4952910;28;19922;-71
2023/06/08 00:32:32;;;;;;;;;;;;;;;15.27;100.00;101817.06;4944518;28;19993;-71
2023/06/08 00:34:57;;;;;;;;;;;;;;;15.36;100.00;101803.75;4956880;28;19929;-72
2023/06/08 00:37:22;;;;;;;;;;;;;;;15.35;100.00;101810.16;4956820;28;19960;-71
2023/06/08 00:39:47;;;;;;;;;;;;;;;15.39;100.00;101800.81;4951820;28;20012;-71
2023/06/08 00:42:13;;;;;;;;;;;;;;;15.33;100.00;101806.72;4959885;28;20220;-71
2023/06/08 00:44:38;;;;;;;;;;;;;;;15.27;100.00;101803.53;4956745;28;19933;-71
2023/06/08 00:47:03;;;;;;;;;;;;;;;15.14;100.00;101800.13;4959435;28;19937;-71
2023/06/08 00:49:28;;;;;;;;;;;;;;;15.19;100.00;101794.34;4959302;28;19926;-71
2023/06/08 00:51:54;;;;;;;;;;;;;;;15.22;100.00;101794.09;4950501;28;20342;-72
2023/06/08 00:54:19;;;;;;;;;;;;;;;15.03;100.00;101794.72;4975831;28;19918;-72
2023/06/08 00:56:48;;;;;;;;;;;;;;;15.05;100.00;101796.34;4975232;28;20443;-72
2023/06/08 00:59:14;;;;;;;;;;;;;;;14.98;100.00;101789.72;4963462;28;19973;-71
2023/06/08 01:01:40;;;;;;;;;;;;;;;14.95;100.00;101780.03;4970138;28;20009;-71
2023/06/08 01:04:05;;;;;;;;;;;;;;;14.93;100.00;101776.56;4973306;28;19922;-71
2023/06/08 01:06:37;;;;;;;;;;;;;;;14.76;100.00;101777.94;4957736;28;20016;-72
2023/06/08 01:09:05;;;;;;;;;;;;;;;14.68;100.00;101783.06;4973413;28;19926;-72
2023/06/08 01:11:31;;;;;;;;;;;;;;;14.48;100.00;101781.94;4959940;28;19930;-70
2023/06/08 01:13:56;;;;;;;;;;;;;;;14.44;100.00;101775.06;4961353;28;19922;-70
2023/06/08 01:16:22;;;;;;;;;;;;;;;14.40;100.00;101780.75;4958584;28;20407;-70
2023/06/08 01:18:47;;;;;;;;;;;;;;;14.34;100.00;101781.22;4979071;28;20337;-70
2023/06/08 01:21:16;;;;;;;;;;;;;;;14.22;100.00;101783.06;4960030;28;19980;-70
2023/06/08 01:24:02;;;;;;;;;;;;;;;14.20;100.00;101779.59;4964914;28;19924;-70
2023/06/08 01:26:28;;;;;;;;;;;;;;;14.18;100.00;101781.56;4954672;28;19926;-70
2023/06/08 01:28:55;;;;;;;;;;;;;;;14.14;100.00;101798.13;4970703;28;19926;-70
2023/06/08 01:31:20;;;;;;;;;;;;;;;14.08;100.00;101794.94;4970871;28;20073;-70
2023/06/08 01:33:46;;;;;;;;;;;;;;;14.08;100.00;101794.06;4980925;28;20053;-71
2023/06/08 01:36:20;;;;;;;;;;;;;;;14.08;100.00;101789.53;4972200;28;19980;-70
2023/06/08 01:38:53;;;;;;;;;;;;;;;14.16;100.00;101790.78;4964948;28;19922;-71
2023/06/08 01:41:26;;;;;;;;;;;;;;;14.16;100.00;101780.81;4954185;28;20388;-71
2023/06/08 01:43:52;;;;;;;;;;;;;;;14.16;100.00;101779.97;4960014;28;20571;-70
2023/06/08 01:46:18;;;;;;;;;;;;;;;14.11;100.00;101777.63;4972808;28;19922;-71
2023/06/08 01:48:43;;;;;;;;;;;;;;;14.10;100.00;101779.47;4940947;28;19922;-70
2023/06/08 01:51:08;;;;;;;;;;;;;;;14.07;100.00;101766.19;4956406;28;19929;-70
2023/06/08 01:53:34;;;;;;;;;;;;;;;14.02;100.00;101771.09;4964123;28;19928;-70
2023/06/08 01:55:59;;;;;;;;;;;;;;;13.98;100.00;101777.72;4964951;28;19926;-70
2023/06/08 01:58:24;;;;;;;;;;;;;;;14.00;100.00;101762.25;4958223;28;19922;-70
2023/06/08 02:00:50;;;;;;;;;;;;;;;13.93;100.00;101769.97;4966356;28;19926;-70
2023/06/08 02:03:15;;;;;;;;;;;;;;;13.79;100.00;101768.34;4970011;28;20320;-69
2023/06/08 02:05:40;;;;;;;;;;;;;;;13.83;100.00;101768.97;4958995;28;19922;-69
2023/06/08 02:08:05;;;;;;;;;;;;;;;13.76;100.00;101765.88;4958891;28;19929;-70
2023/06/08 02:10:30;;;;;;;;;;;;;;;13.86;100.00;101767.88;4958337;28;19918;-71
2023/06/08 02:12:56;;;;;;;;;;;;;;;13.83;100.00;101774.34;4962398;28;19922;-71
2023/06/08 02:15:21;;;;;;;;;;;;;;;13.82;100.00;101767.22;4957316;28;19933;-71
2023/06/08 02:17:46;;;;;;;;;;;;;;;13.81;100.00;101768.22;4965118;28;19946;-71
2023/06/08 02:20:11;;;;;;;;;;;;;;;13.74;100.00;101765.13;4960390;28;19930;-71
2023/06/08 02:22:37;;;;;;;;;;;;;;;13.63;100.00;101762.41;4961649;28;20380;-70
2023/06/08 02:25:06;;;;;;;;;;;;;;;13.62;100.00;101758.84;4961805;28;20372;-70
2023/06/08 02:27:35;;;;;;;;;;;;;;;13.72;100.00;101763.53;4959662;28;19922;-71
2023/06/08 02:30:01;;;;;;;;;;;;;;;13.59;100.00;101759.06;4957795;28;19922;-70
2023/06/08 02:32:26;;;;;;;;;;;;;;;13.47;100.00;101752.75;4967747;28;20399;-70
2023/06/08 02:34:55;;;;;;;;;;;;;;;13.44;100.00;101757.53;4954524;28;19996;-69
2023/06/08 02:37:21;;;;;;;;;;;;;;;13.46;100.00;101755.59;4957683;28;19953;-70
2023/06/08 02:39:46;;;;;;;;;;;;;;;13.40;100.00;101766.81;4970984;28;20013;-70
2023/06/08 02:42:12;;;;;;;;;;;;;;;13.42;100.00;101763.03;4954029;28;20943;-70
2023/06/08 02:44:37;;;;;;;;;;;;;;;13.41;100.00;101764.00;4974982;28;20737;-70
2023/06/08 02:47:02;;;;;;;;;;;;;;;13.44;100.00;101757.53;4959613;28;19957;-70
2023/06/08 02:49:27;;;;;;;;;;;;;;;13.39;100.00;101763.22;4962841;28;19922;-71
2023/06/08 02:51:53;;;;;;;;;;;;;;;13.31;100.00;101762.97;4960252;28;19922;-70
2023/06/08 02:54:19;;;;;;;;;;;;;;;13.28;100.00;101755.94;4966481;28;20216;-70
2023/06/08 02:56:45;;;;;;;;;;;;;;;13.30;100.00;101758.56;4963404;28;19926;-70
2023/06/08 02:59:10;;;;;;;;;;;;;;;13.27;100.00;101756.06;4965894;28;19928;-69
2023/06/08 03:01:36;;;;;;;;;;;;;;;13.20;100.00;101761.06;4950415;28;19922;-69
2023/06/08 03:04:02;;;;;;;;;;;;;;;13.08;100.00;101760.16;4958110;28;20573;-70
2023/06/08 03:06:33;;;;;;;;;;;;;;;12.98;100.00;101765.34;4960979;28;19930;-70
2023/06/08 03:08:58;;;;;;;;;;;;;;;12.89;100.00;101757.94;4962426;28;20384;-70
2023/06/08 03:11:23;;;;;;;;;;;;;;;12.91;100.00;101750.59;4971918;28;20124;-71
2023/06/08 03:13:49;;;;;;;;;;;;;;;12.90;100.00;101751.59;4979373;28;19949;-70
2023/06/08 03:16:14;;;;;;;;;;;;;;;12.88;100.00;101756.22;4962043;28;20349;-70
2023/06/08 03:18:40;;;;;;;;;;;;;;;12.80;100.00;101748.69;4975431;28;19921;-69
2023/06/08 03:21:07;;;;;;;;;;;;;;;12.78;100.00;101745.25;4961942;28;20293;-70
2023/06/08 03:23:35;;;;;;;;;;;;;;;12.71;100.00;101754.75;4964861;28;19933;-69
2023/06/08 03:26:00;;;;;;;;;;;;;;;12.60;100.00;101753.69;4960995;28;19934;-70
2023/06/08 03:28:26;;;;;;;;;;;;;;;12.58;100.00;101757.47;4979213;28;19929;-70
2023/06/08 03:30:51;;;;;;;;;;;;;;;12.58;100.00;101746.69;4951202;28;19968;-70
2023/06/08 03:33:16;;;;;;;;;;;;;;;12.52;100.00;101753.38;4951418;28;20325;-70
2023/06/08 03:35:41;;;;;;;;;;;;;;;12.38;100.00;101749.00;4955815;28;20284;-70
2023/06/08 03:38:07;;;;;;;;;;;;;;;12.39;100.00;101750.72;4956671;28;20356;-70
2023/06/08 03:40:32;;;;;;;;;;;;;;;12.47;100.00;101749.28;4952444;28;20021;-72
2023/06/08 03:42:57;;;;;;;;;;;;;;;12.46;100.00;101761.91;4954089;28;19957;-70
2023/06/08 03:45:22;;;;;;;;;;;;;;;12.46;100.00;101753.81;4956259;28;19965;-70
2023/06/08 03:47:47;;;;;;;;;;;;;;;12.42;100.00;101755.00;4977753;28;19918;-70
2023/06/08 03:50:13;;;;;;;;;;;;;;;12.42;100.00;101755.00;4960862;28;20306;-70
2023/06/08 03:52:38;;;;;;;;;;;;;;;12.36;100.00;101753.63;4952031;28;20021;-70
2023/06/08 03:55:07;;;;;;;;;;;;;;;12.36;100.00;101764.38;4972954;28;19922;-70
2023/06/08 03:57:32;;;;;;;;;;;;;;;12.39;100.00;101750.72;4948122;28;19969;-70
2023/06/08 03:59:57;;;;;;;;;;;;;;;12.34;100.00;101744.78;4950396;28;19969;-70
2023/06/08 04:02:22;;;;;;;;;;;;;;;12.42;100.00;101749.63;4950051;28;20103;-70
2023/06/08 04:04:48;;;;;;;;;;;;;;;12.49;100.00;101747.34;4949988;28;19976;-70
2023/06/08 04:07:13;;;;;;;;;;;;;;;12.49;100.00;101747.34;4949463;28;19969;-71
2023/06/08 04:09:38;;;;;;;;;;;;;;;12.42;100.00;101747.81;4954403;28;19922;-70
2023/06/08 04:12:05;;;;;;;;;;;;;;;12.43;100.00;101744.13;4953280;28;20272;-70
2023/06/08 04:14:30;;;;;;;;;;;;;;;12.49;100.00;101747.34;4952288;28;19928;-70
2023/06/08 04:16:56;;;;;;;;;;;;;;;12.45;100.00;101749.41;4967100;28;19926;-70
2023/06/08 04:19:21;;;;;;;;;;;;;;;12.46;100.00;101751.13;4953355;28;19922;-70
2023/06/08 04:21:46;;;;;;;;;;;;;;;12.49;100.00;101753.59;4948492;28;19922;-70
2023/06/08 04:24:11;;;;;;;;;;;;;;;12.52;100.00;101745.31;4950671;28;19922;-70
2023/06/08 04:26:37;;;;;;;;;;;;;;;12.55;100.00;101753.16;4950538;28;20470;-70
2023/06/08 04:29:03;;;;;;;;;;;;;;;12.68;100.00;101746.88;4968065;28;20393;-70
2023/06/08 04:31:28;;;;;;;;;;;;;;;12.75;100.00;101748.16;4952245;28;20025;-71
2023/06/08 04:33:54;;;;;;;;;;;;;;;12.84;100.00;101747.50;4952024;28;20403;-70
2023/06/08 04:36:19;;;;;;;;;;;;;;;12.89;100.00;101750.69;4954321;28;19968;-71
2023/06/08 04:38:45;;;;;;;;;;;;;;;12.78;100.00;101745.25;4952139;28;19933;-71
2023/06/08 04:41:11;;;;;;;;;;;;;;;12.94;100.00;101749.50;4949067;28;19944;-71
2023/06/08 04:43:36;;;;;;;;;;;;;;;12.90;100.00;101740.81;4963808;28;19918;-71
2023/06/08 04:46:04;;;;;;;;;;;;;;;13.00;100.00;101741.81;4971948;28;19961;-71
2023/06/08 04:48:30;;;;;;;;;;;;;;;13.04;100.00;101745.19;4987118;28;20377;-70
2023/06/08 04:50:59;;;;;;;;;;;;;;;13.15;100.00;101747.06;4959198;28;20014;-70
2023/06/08 04:53:25;;;;;;;;;;;;;;;13.10;100.00;101741.16;4957169;28;19926;-70
2023/06/08 04:55:56;;;;;;;;;;;;;;;13.16;100.00;101738.84;4956379;28;19922;-70
2023/06/08 04:58:22;;;;;;;;;;;;;;;13.28;100.00;101745.16;4957162;28;19929;-70
2023/06/08 05:00:47;;;;;;;;;;;;;;;13.28;100.00;101739.78;4958162;28;19922;-71
2023/06/08 05:03:12;;;;;;;;;;;;;;;13.38;100.00;101741.78;4970922;28;19961;-70
2023/06/08 05:05:37;;;;;;;;;;;;;;;13.54;100.00;101744.22;4973689;28;21612;-71
2023/06/08 05:08:03;;;;;;;;;;;;;;;13.56;100.00;101744.97;4942517;28;20020;-70
2023/06/08 05:10:28;;;;;;;;;;;;;;;13.42;100.00;101744.16;4978245;28;19922;-70
2023/06/08 05:12:55;;;;;;;;;;;;;;;13.44;100.00;101744.91;4970278;28;19926;-70
2023/06/08 05:15:20;;;;;;;;;;;;;;;13.63;100.00;101744.38;4970497;28;20168;-71
2023/06/08 05:17:46;;;;;;;;;;;;;;;13.69;100.00;101739.47;4993481;23;19957;-71
2023/06/08 05:20:11;;;;;;;;;;;;;;;13.54;100.00;101744.22;4960906;28;19922;-71
2023/06/08 05:22:36;;;;;;;;;;;;;;;13.60;100.00;101741.91;4968027;28;19926;-71
2023/06/08 05:25:02;;;;;;;;;;;;;;;13.57;100.00;101744.81;4952606;28;19922;-71
2023/06/08 05:27:27;;;;;;;;;;;;;;;13.71;100.00;101738.38;4953258;28;20202;-72
2023/06/08 05:29:52;;;;;;;;;;;;;;;13.75;100.00;101747.13;4955132;28;20229;-71
2023/06/08 05:32:17;;;;;;;;;;;;;;;13.80;100.00;101739.50;4952511;28;19968;-71
2023/06/08 05:34:42;;;;;;;;;;;;;;;13.86;100.00;101743.59;4950258;28;20013;-71
2023/06/08 05:37:08;;;;;;;;;;;;;;;13.90;100.00;101742.38;4957756;28;20202;-71
2023/06/08 05:39:33;;;;;;;;;;;;;;;13.92;100.00;101738.56;4970456;28;20016;-71
2023/06/08 05:41:58;;;;;;;;;;;;;;;13.88;100.00;101741.63;4967833;28;19932;-71
2023/06/08 05:44:23;;;;;;;;;;;;;;;13.88;100.00;101742.47;4954496;28;19929;-71
2023/06/08 05:46:49;;;;;;;;;;;;;;;13.91;100.00;101733.25;4956314;28;19926;-71
2023/06/08 05:49:14;;;;;;;;;;;;;;;14.05;100.00;101735.75;4955882;28;19951;-71
2023/06/08 05:51:39;;;;;;;;;;;;;;;14.10;100.00;101730.88;4955297;28;20380;-71
2023/06/08 05:54:04;;;;;;;;;;;;;;;14.19;100.00;101731.97;4957306;28;19945;-71
2023/06/08 05:56:30;;;;;;;;;;;;;;;14.24;100.00;101724.38;4956994;28;19922;-71
2023/06/08 05:58:56;;;;;;;;;;;;;;;14.24;100.00;101735.19;4937714;28;19978;-71
2023/06/08 06:01:21;;;;;;;;;;;;;;;14.34;100.00;101731.72;4953710;28;20389;-71
2023/06/08 06:03:46;;;;;;;;;;;;;;;14.39;100.00;101743.03;4954342;28;19941;-71
2023/06/08 06:06:12;;;;;;;;;;;;;;;14.51;100.00;101739.34;4952147;28;19973;-70
2023/06/08 06:08:37;;;;;;;;;;;;;;;14.55;100.00;101737.25;4957730;28;19928;-70
2023/06/08 06:11:02;;;;;;;;;;;;;;;14.62;100.00;101732.19;4974281;28;20369;-71
2023/06/08 06:13:27;;;;;;;;;;;;;;;14.55;100.00;101739.94;4959811;28;20408;-71
2023/06/08 06:15:53;;;;;;;;;;;;;;;14.62;100.00;101738.47;4955377;28;20464;-70
2023/06/08 06:18:18;;;;;;;;;;;;;;;14.60;100.00;101732.34;4957426;28;19922;-71
2023/06/08 06:20:43;;;;;;;;;;;;;;;14.75;100.00;101730.28;4958141;28;19922;-71
2023/06/08 06:23:08;;;;;;;;;;;;;;;14.88;100.00;101731.94;4955814;28;20608;-71
2023/06/08 06:25:35;;;;;;;;;;;;;;;14.99;100.00;101729.25;4972839;28;19930;-71
2023/06/08 06:28:00;;;;;;;;;;;;;;;15.11;100.00;101738.19;4959720;28;20399;-71
2023/06/08 06:30:26;;;;;;;;;;;;;;;15.23;100.00;101741.69;4961429;28;20179;-71
2023/06/08 06:32:51;;;;;;;;;;;;;;;15.22;100.00;101735.44;4956095;28;20364;-70
2023/06/08 06:35:16;;;;;;;;;;;;;;;15.26;100.00;101739.59;4976047;28;20058;-70
2023/06/08 06:37:41;;;;;;;;;;;;;;;15.41;100.00;101734.75;4973029;28;20068;-70
2023/06/08 06:40:07;;;;;;;;;;;;;;;15.58;100.00;101746.84;4956646;28;19976;-70
2023/06/08 06:42:32;;;;;;;;;;;;;;;15.69;100.00;101750.50;4957679;28;20131;-71
2023/06/08 06:44:58;;;;;;;;;;;;;;;15.77;100.00;101744.41;4971086;28;19945;-72
2023/06/08 06:47:23;;;;;;;;;;;;;;;15.78;100.00;101743.44;4954722;28;20011;-71
2023/06/08 06:49:50;;;;;;;;;;;;;;;15.79;100.00;101754.13;4961201;28;21363;-71
2023/06/08 06:52:16;;;;;;;;;;;;;;;15.94;100.00;101753.84;4972209;28;19977;-71
2023/06/08 06:54:41;;;;;;;;;;;;;;;16.01;100.00;101755.88;4955583;28;19957;-71
2023/06/08 06:57:07;;;;;;;;;;;;;;;15.99;100.00;101747.03;4957743;28;20288;-71
2023/06/08 06:59:32;;;;;;;;;;;;;;;16.11;100.00;101747.81;4950230;28;19926;-71
2023/06/08 07:01:57;;;;;;;;;;;;;;;16.33;100.00;101748.63;4952341;28;19929;-71
2023/06/08 07:04:22;;;;;;;;;;;;;;;16.46;100.00;101745.69;4955260;28;19934;-71
2023/06/08 07:06:49;;;;;;;;;;;;;;;16.31;100.00;101745.19;4962713;28;20405;-70
2023/06/08 07:09:14;;;;;;;;;;;;;;;16.40;100.00;101749.81;4957769;28;19922;-70
2023/06/08 07:11:39;;;;;;;;;;;;;;;16.60;100.00;101749.88;4966760;28;19922;-70
2023/06/08 07:14:05;;;;;;;;;;;;;;;16.82;100.00;101746.09;4944760;28;19922;-71
2023/06/08 07:16:30;;;;;;;;;;;;;;;16.61;100.00;101749.75;4971473;28;19929;-69
2023/06/08 07:18:55;;;;;;;;;;;;;;;16.95;100.00;101743.13;4980143;28;19972;-70
2023/06/08 07:21:21;;;;;;;;;;;;;;;17.04;100.00;101744.19;4958216;28;19921;-70
2023/06/08 07:23:48;;;;;;;;;;;;;;;17.06;100.00;101742.19;4948437;28;19922;-70
2023/06/08 07:26:13;;;;;;;;;;;;;;;16.93;100.00;101740.56;4952482;28;20005;-71
2023/06/08 07:28:38;;;;;;;;;;;;;;;17.03;100.00;101746.06;4953068;28;20000;-70
2023/06/08 07:31:03;;;;;;;;;;;;;;;17.14;100.00;101734.22;4956051;28;19928;-69
2023/06/08 07:33:28;;;;;;;;;;;;;;;17.21;100.00;101734.50;4954307;28;19969;-71
2023/06/08 07:35:54;;;;;;;;;;;;;;;17.38;100.00;101741.94;4954917;28;19922;-70
2023/06/08 07:38:19;;;;;;;;;;;;;;;17.58;100.00;101732.94;4954519;28;19922;-70
2023/06/08 07:40:44;;;;;;;;;;;;;;;17.62;100.00;101737.91;4954963;28;19926;-69
2023/06/08 07:43:10;;;;;;;;;;;;;;;17.86;100.00;101733.91;4954498;28;19933;-70
2023/06/08 07:45:35;;;;;;;;;;;;;;;18.11;100.00;101735.16;4952011;28;20115;-69
2023/06/08 07:48:00;;;;;;;;;;;;;;;18.37;100.00;101728.22;4971110;28;19950;-70
2023/06/08 07:50:26;;;;;;;;;;;;;;;18.18;100.00;101726.41;4967965;28;19957;-69
2023/06/08 07:52:51;;;;;;;;;;;;;;;18.31;100.00;101729.63;4951727;28;19957;-69
2023/06/08 07:55:16;;;;;;;;;;;;;;;18.53;100.00;101724.84;4968091;28;20616;-71
2023/06/08 07:57:42;;;;;;;;;;;;;;;18.51;100.00;101729.59;4950911;28;20319;-70
2023/06/08 08:00:08;;;;;;;;;;;;;;;18.70;100.00;101734.03;4956460;28;20277;-71
2023/06/08 08:02:33;;;;;;;;;;;;;;;18.69;100.00;101727.75;4948573;28;20009;-70
2023/06/08 08:04:58;;;;;;;;;;;;;;;18.61;100.00;101727.66;4955028;28;20040;-69
2023/06/08 08:07:24;;;;;;;;;;;;;;;18.62;100.00;101737.53;4959277;28;19934;-69
2023/06/08 08:09:49;;;;;;;;;;;;;;;18.76;100.00;101735.31;4958608;28;20320;-70
2023/06/08 08:12:14;;;;;;;;;;;;;;;18.74;100.00;101736.34;4955677;28;19918;-71
2023/06/08 08:14:40;;;;;;;;;;;;;;;18.70;100.00;101742.19;4953327;28;19933;-70
2023/06/08 08:17:05;;;;;;;;;;;;;;;18.56;100.00;101744.44;4954371;28;19918;-71
2023/06/08 08:19:31;;;;;;;;;;;;;;;18.45;100.00;101750.03;4958730;28;19922;-70
2023/06/08 08:21:56;;;;;;;;;;;;;;;18.36;100.00;101743.66;4958620;28;20017;-70
2023/06/08 08:24:21;;;;;;;;;;;;;;;18.62;100.00;101751.13;4951114;28;20061;-71
2023/06/08 08:26:47;;;;;;;;;;;;;;;18.76;100.00;101749.75;4959674;28;19930;-72
2023/06/08 08:29:12;;;;;;;;;;;;;;;18.96;100.00;101749.69;4959343;28;19941;-73
2023/06/08 08:31:38;;;;;;;;;;;;;;;19.10;100.00;101749.16;4956746;28;19928;-70
2023/06/08 08:34:03;;;;;;;;;;;;;;;19.36;100.00;101748.41;4951698;28;19929;-69
2023/06/08 08:36:28;;;;;;;;;;;;;;;19.27;100.00;101749.31;4954879;28;19926;-71
2023/06/08 08:38:53;;;;;;;;;;;;;;;19.00;100.00;101746.53;4953313;28;19922;-69
2023/06/08 08:41:23;;;;;;;;;;;;;;;18.89;100.00;101741.25;4956983;28;19953;-69
2023/06/08 08:44:05;;;;;;;;;;;;;;;18.76;100.00;101724.44;4955498;28;19922;-69
2023/06/08 08:46:33;;;;;;;;;;;;;;;18.90;100.00;101742.97;4960756;28;20357;-70
2023/06/08 08:49:00;;;;;;;;;;;;;;;18.94;99.52;101743.50;4956045;28;19922;-70
2023/06/08 08:51:25;;;;;;;;;;;;;;;19.07;100.00;101743.19;4957229;28;19922;-70
2023/06/08 08:53:51;;;;;;;;;;;;;;;19.17;95.20;101749.41;4955029;28;19929;-71
2023/06/08 08:56:20;;;;;;;;;;;;;;;19.20;93.58;101748.25;4968555;28;19969;-70
2023/06/08 08:58:46;;;;;;;;;;;;;;;19.07;97.63;101721.41;4955722;28;19928;-71
2023/06/08 09:01:12;;;;;;;;;;;;;;;19.04;93.06;101741.63;4954749;28;19929;-69
2023/06/08 09:03:38;;;;;;;;;;;;;;;18.93;96.79;101742.66;4955644;28;19922;-70
2023/06/08 09:06:03;;;;;;;;;;;;;;;19.00;96.71;101742.94;4960481;28;20341;-70
2023/06/08 09:08:28;;;;;;;;;;;;;;;18.95;90.88;101743.41;4954803;28;20042;-69
2023/06/08 09:11:06;;;;;;;;;;;;;;;18.86;91.81;101747.00;4952061;28;19929;-70
2023/06/08 09:13:32;;;;;;;;;;;;;;;18.55;90.10;101742.72;4955261;28;19964;-70
2023/06/08 09:16:19;;;;;;;;;;;;;;;18.50;93.24;101742.31;4955195;28;19926;-70
2023/06/08 09:18:46;;;;;;;;;;;;;;;18.46;100.00;101735.44;4954229;28;19929;-70
2023/06/08 09:21:24;;;;;;;;;;;;;;;18.45;94.30;101731.03;4956599;28;19930;-69
2023/06/08 09:24:01;;;;;;;;;;;;;;;18.53;95.92;101730.28;4952867;28;20399;-70
2023/06/08 09:26:32;;;;;;;;;;;;;;;18.57;93.80;101729.84;4959534;28;19926;-71
2023/06/08 09:29:02;;;;;;;;;;;;;;;18.48;94.87;101717.13;4955086;28;20423;-72
2023/06/08 09:31:30;;;;;;;;;;;;;;;18.59;93.11;101733.25;4953562;28;20645;-71
2023/06/08 09:34:08;;;;;;;;;;;;;;;18.49;96.44;101718.84;4955121;28;19918;-71
2023/06/08 09:36:39;;;;;;;;;;;;;;;18.75;94.88;101723.56;4966377;28;19921;-70
2023/06/08 09:39:08;;;;;;;;;;;;;;;18.96;92.32;101720.63;4936594;28;20285;-71
2023/06/08 09:41:34;;;;;;;;;;;;;;;19.18;94.96;101726.63;4958823;28;19988;-71
2023/06/08 09:44:02;;;;;;;;;;;;;;;19.17;88.11;101724.91;4954627;28;19926;-70
2023/06/08 09:46:30;;;;;;;;;;;;;;;18.99;90.36;101722.16;4957001;28;19965;-71
2023/06/08 09:48:58;;;;;;;;;;;;;;;19.12;91.47;101724.50;4954542;28;20002;-71
2023/06/08 09:51:23;;;;;;;;;;;;;;;19.44;88.42;101732.16;4961123;28;19925;-71
2023/06/08 09:53:56;;;;;;;;;;;;;;;19.36;86.72;101725.75;4955717;28;20417;-71
2023/06/08 09:56:22;;;;;;;;;;;;;;;19.56;85.91;101713.69;4949709;28;19926;-70
2023/06/08 09:58:47;;;;;;;;;;;;;;;19.57;86.49;101717.25;4953850;28;19926;-70
2023/06/08 10:01:12;;;;;;;;;;;;;;;19.77;81.47;101716.06;4965739;28;19922;-70
2023/06/08 10:03:38;;;;;;;;;;;;;;;19.87;83.13;101717.84;4953729;28;19936;-70
2023/06/08 10:06:03;;;;;;;;;;;;;;;20.12;79.63;101704.38;4950817;28;20372;-70
2023/06/08 10:08:28;;;;;;;;;;;;;;;20.52;83.69;101705.63;4954861;28;19921;-70
2023/06/08 10:10:54;;;;;;;;;;;;;;;20.96;72.08;101705.44;4952818;28;20020;-70
2023/06/08 10:13:19;;;;;;;;;;;;;;;21.22;72.80;101693.53;4954172;28;20619;-70
2023/06/08 10:15:45;;;;;;;;;;;;;;;22.04;73.04;101686.31;4952015;28;19926;-71
2023/06/08 10:18:10;;;;;;;;;;;;;;;22.48;70.14;101690.47;4949850;28;19921;-71
2023/06/08 10:20:35;;;;;;;;;;;;;;;22.72;67.43;101692.19;4942326;28;20012;-72
2023/06/08 10:23:01;;;;;;;;;;;;;;;22.49;67.13;101681.22;4953698;28;20280;-71
2023/06/08 10:25:30;;;;;;;;;;;;;;;22.64;68.57;101684.06;4950684;28;20243;-71
2023/06/08 10:27:56;;;;;;;;;;;;;;;22.77;69.71;101678.84;4937472;28;20063;-71
2023/06/08 10:30:39;;;;;;;;;;;;;;;23.32;67.80;101687.03;4956090;28;19926;-71
2023/06/08 10:33:08;;;;;;;;;;;;;;;23.74;59.89;101684.78;4950378;28;20013;-72
2023/06/08 10:35:33;;;;;;;;;;;;;;;23.75;60.73;101682.88;4952833;28;19929;-71
2023/06/08 10:38:07;;;;;;;;;;;;;;;24.05;58.26;101672.84;4955087;28;20020;-71
2023/06/08 10:40:35;;;;;;;;;;;;;;;24.30;57.65;101668.94;4944947;28;19925;-71
2023/06/08 10:43:00;;;;;;;;;;;;;;;24.68;55.92;101666.03;4938430;28;20415;-70
2023/06/08 10:45:31;;;;;;;;;;;;;;;25.04;57.48;101658.84;4954108;28;19922;-70
2023/06/08 10:48:01;;;;;;;;;;;;;;;25.20;57.13;101658.56;4939609;28;20040;-71
2023/06/08 10:50:30;;;;;;;;;;;;;;;25.41;59.76;101660.44;4950021;28;19980;-71
2023/06/08 10:52:58;;;;;;;;;;;;;;;25.79;55.72;101661.19;4956453;28;20181;-72
2023/06/08 10:55:25;;;;;;;;;;;;;;;25.78;56.04;101651.22;4951913;28;19924;-71
2023/06/08 10:57:52;;;;;;;;;;;;;;;25.92;55.75;101643.91;4959598;28;19928;-71
2023/06/08 11:00:20;;;;;;;;;;;;;;;26.18;54.56;101644.09;4953857;28;19918;-72
2023/06/08 11:02:48;;;;;;;;;;;;;;;26.37;59.00;101638.00;4965462;28;19926;-71
2023/06/08 11:05:14;;;;;;;;;;;;;;;26.73;55.29;101645.97;4955566;28;19922;-72
2023/06/08 11:07:40;;;;;;;;;;;;;;;26.49;56.25;101642.69;4952992;28;19929;-72
2023/06/08 11:10:05;;;;;;;;;;;;;;;26.46;50.18;101634.88;4955228;28;20064;-71
2023/06/08 11:12:30;;;;;;;;;;;;;;;26.60;52.65;101635.78;4953497;28;20105;-70
2023/06/08 11:14:55;;;;;;;;;;;;;;;27.04;51.51;101632.69;4955391;28;19924;-70
2023/06/08 11:17:21;;;;;;;;;;;;;;;27.46;49.43;101627.81;4954213;28;19922;-70
2023/06/08 11:19:46;;;;;;;;;;;;;;;27.86;50.95;101629.69;4962774;28;19921;-71
2023/06/08 11:22:11;;;;;;;;;;;;;;;28.28;47.47;101630.22;4957959;28;19929;-70
2023/06/08 11:24:36;;;;;;;;;;;;;;;28.49;50.73;101627.34;4959324;28;19929;-71
2023/06/08 11:27:02;;;;;;;;;;;;;;;28.55;51.97;101623.69;4956639;28;20045;-71
2023/06/08 11:29:27;;;;;;;;;;;;;;;28.59;47.12;101614.75;4953484;28;19926;-71
2023/06/08 11:31:53;;;;;;;;;;;;;;;28.17;46.57;101613.50;4947965;28;19926;-71
2023/06/08 11:34:19;;;;;;;;;;;;;;;28.33;48.28;101614.91;4951905;28;20460;-70
2023/06/08 11:36:45;;;;;;;;;;;;;;;27.95;49.97;101624.75;4959863;28;19922;-71
2023/06/08 11:39:13;;;;;;;;;;;;;;;27.58;50.32;101616.16;4954867;28;19918;-71
2023/06/08 11:41:40;;;;;;;;;;;;;;;27.53;50.30;101608.56;4954595;28;19951;-71
2023/06/08 11:44:05;;;;;;;;;;;;;;;27.43;47.66;101608.09;4953085;28;20364;-71
2023/06/08 11:46:30;;;;;;;;;;;;;;;27.03;49.40;101611.72;4957055;28;19930;-72
2023/06/08 11:49:11;;;;;;;;;;;;;;;26.75;52.83;101604.44;4957840;28;19922;-70
2023/06/08 11:51:46;;;;;;;;;;;;;;;27.01;52.79;101616.59;4951183;28;20021;-71
2023/06/08 11:54:12;;;;;;;;;;;;;;;27.49;50.05;101599.00;4950000;28;19926;-71
2023/06/08 11:56:37;;;;;;;;;;;;;;;28.03;47.53;101590.59;4957723;28;20225;-70
2023/06/08 11:59:03;;;;;;;;;;;;;;;28.92;50.96;101587.13;4954802;28;20416;-71
2023/06/08 12:01:29;;;;;;;;;;;;;;;29.70;48.80;101585.78;4952158;28;19923;-71
2023/06/08 12:03:54;;;;;;;;;;;;;;;30.05;44.25;101576.91;4952362;28;20459;-71
2023/06/08 12:06:19;;;;;;;;;;;;;;;30.49;41.32;101578.63;4958021;28;20412;-71
2023/06/08 12:08:45;;;;;;;;;;;;;;;30.66;41.49;101573.31;4977074;28;19944;-72
2023/06/08 12:11:11;;;;;;;;;;;;;;;30.23;44.57;101580.69;4955156;28;19922;-71
2023/06/08 12:13:40;;;;;;;;;;;;;;;30.94;41.79;101574.56;4954248;28;20558;-73
2023/06/08 12:16:06;;;;;;;;;;;;;;;31.20;41.25;101578.84;4969626;28;19965;-70
2023/06/08 12:18:36;;;;;;;;;;;;;;;30.96;41.06;101575.16;4962378;28;19922;-72
2023/06/08 12:21:01;;;;;;;;;;;;;;;31.13;42.85;101570.59;4962259;28;19933;-72
2023/06/08 12:23:26;;;;;;;;;;;;;;;30.79;40.72;101561.16;4968220;28;19954;-72
2023/06/08 12:25:52;;;;;;;;;;;;;;;31.52;39.85;101555.44;4959929;28;20036;-71